sensor_id;sensor_type;location;lat;lon;timestamp;pressure;altitude;pressure_sealevel;temperature;humidity
82743;BME280;72483;50.656;7.216;2024-02-21T00:02:13;101840.63;;;19.08;51.91
82743;BME280;72483;50.656;7.216;2024-02-21T00:04:43;101829.44;;;19.08;51.66
82743;BME280;72483;50.656;7.216;2024-02-21T00:07:11;101831.13;;;19.09;51.52
82743;BME280;72483;50.656;7.216;2024-02-21T00:09:37;101826.09;;;19.11;51.70
82743;BME280;72483;50.656;7.216;2024-02-21T00:12:04;101821.91;;;19.09;51.51
82743;BME280;72483;50.656;7.216;2024-02-21T00:14:31;101828.34;;;19.09;51.25
82743;BME280;72483;50.656;7.216;2024-02-21T00:16:57;101818.81;;;19.05;51.80
82743;BME280;72483;50.656;7.216;2024-02-21T00:19:24;101809.59;;;19.05;51.60
82743;BME280;72483;50.656;7.216;2024-02-21T00:21:53;101811.84;;;19.08;51.11
82743;BME280;72483;50.656;7.216;2024-02-21T00:24:21;101814.63;;;19.08;51.42
82743;BME280;72483;50.656;7.216;2024-02-21T00:26:47;101807.94;;;19.09;51.35
82743;BME280;72483;50.656;7.216;2024-02-21T00:29:14;101810.16;;;19.07;51.36
82743;BME280;72483;50.656;7.216;2024-02-21T00:31:40;101804.56;;;19.07;51.58
82743;BME280;72483;50.656;7.216;2024-02-21T00:34:06;101805.41;;;19.07;51.34
82743;BME280;72483;50.656;7.216;2024-02-21T00:36:33;101804.56;;;19.07;51.03
82743;BME280;72483;50.656;7.216;2024-02-21T00:38:59;101805.09;;;19.04;51.07
82743;BME280;72483;50.656;7.216;2024-02-21T00:41:26;101798.16;;;19.06;51.30
82743;BME280;72483;50.656;7.216;2024-02-21T00:43:53;101792.25;;;19.03;51.27
82743;BME280;72483;50.656;7.216;2024-02-21T00:46:19;101791.41;;;19.02;51.36
82743;BME280;72483;50.656;7.216;2024-02-21T00:48:46;101786.94;;;19.01;51.10
82743;BME280;72483;50.656;7.216;2024-02-21T00:51:12;101787.22;;;19.00;51.49
82743;BME280;72483;50.656;7.216;2024-02-21T00:53:39;101787.22;;;19.00;51.51
82743;BME280;72483;50.656;7.216;2024-02-21T00:56:06;101784.75;;;19.03;51.46
82743;BME280;72483;50.656;7.216;2024-02-21T00:58:33;101788.34;;;19.04;51.30
82743;BME280;72483;50.656;7.216;2024-02-21T01:01:00;101786.94;;;19.01;51.49
82743;BME280;72483;50.656;7.216;2024-02-21T01:03:27;101790.25;;;18.98;50.97
82743;BME280;72483;50.656;7.216;2024-02-21T01:05:54;101785.28;;;19.00;51.24
82743;BME280;72483;50.656;7.216;2024-02-21T01:08:20;101781.88;;;18.98;51.36
82743;BME280;72483;50.656;7.216;2024-02-21T01:10:47;101778.84;;;19.00;51.03
82743;BME280;72483;50.656;7.216;2024-02-21T01:13:13;101779.09;;;18.98;51.47
82743;BME280;72483;50.656;7.216;2024-02-21T01:15:41;101777.94;;;18.94;51.06
82743;BME280;72483;50.656;7.216;2024-02-21T01:18:08;101777.94;;;18.94;51.39
82743;BME280;72483;50.656;7.216;2024-02-21T01:20:34;101780.19;;;18.92;51.06
82743;BME280;72483;50.656;7.216;2024-02-21T01:23:00;101780.72;;;18.89;51.67
82743;BME280;72483;50.656;7.216;2024-02-21T01:25:27;101773.44;;;18.88;51.32
82743;BME280;72483;50.656;7.216;2024-02-21T01:27:54;101763.97;;;18.89;51.32
82743;BME280;72483;50.656;7.216;2024-02-21T01:30:20;101757.81;;;18.87;51.57
82743;BME280;72483;50.656;7.216;2024-02-21T01:32:48;101757.22;;;18.85;51.54
82743;BME280;72483;50.656;7.216;2024-02-21T01:35:15;101744.66;;;18.83;51.23
82743;BME280;72483;50.656;7.216;2024-02-21T01:37:41;101745.50;;;18.83;51.20
82743;BME280;72483;50.656;7.216;2024-02-21T01:40:09;101742.97;;;18.82;51.68
82743;BME280;72483;50.656;7.216;2024-02-21T01:42:38;101740.44;;;18.80;51.63
82743;BME280;72483;50.656;7.216;2024-02-21T01:45:05;101734.88;;;18.80;51.64
82743;BME280;72483;50.656;7.216;2024-02-21T01:47:31;101733.78;;;18.81;51.25
82743;BME280;72483;50.656;7.216;2024-02-21T01:49:59;101722.28;;;18.78;51.34
82743;BME280;72483;50.656;7.216;2024-02-21T01:52:27;101716.13;;;18.76;51.54
82743;BME280;72483;50.656;7.216;2024-02-21T01:54:54;101717.25;;;18.75;51.62
82743;BME280;72483;50.656;7.216;2024-02-21T01:57:22;101723.94;;;18.74;51.32
82743;BME280;72483;50.656;7.216;2024-02-21T01:59:49;101715.56;;;18.74;51.18
82743;BME280;72483;50.656;7.216;2024-02-21T02:02:16;101715.81;;;18.72;51.12
82743;BME280;72483;50.656;7.216;2024-02-21T02:04:44;101709.41;;;18.72;51.59
82743;BME280;72483;50.656;7.216;2024-02-21T02:07:12;101715.00;;;18.72;51.43
82743;BME280;72483;50.656;7.216;2024-02-21T02:09:39;101705.78;;;18.71;51.31
82743;BME280;72483;50.656;7.216;2024-02-21T02:12:06;101706.03;;;18.70;51.38
82743;BME280;72483;50.656;7.216;2024-02-21T02:14:32;101706.31;;;18.68;51.02
82743;BME280;72483;50.656;7.216;2024-02-21T02:16:59;101691.53;;;18.68;51.45
82743;BME280;72483;50.656;7.216;2024-02-21T02:19:25;101689.81;;;18.67;51.37
82743;BME280;72483;50.656;7.216;2024-02-21T02:21:54;101688.97;;;18.66;51.08
82743;BME280;72483;50.656;7.216;2024-02-21T02:24:24;101692.06;;;18.64;50.99
82743;BME280;72483;50.656;7.216;2024-02-21T02:26:50;101681.75;;;18.65;51.41
82743;BME280;72483;50.656;7.216;2024-02-21T02:29:17;101688.41;;;18.64;51.05
82743;BME280;72483;50.656;7.216;2024-02-21T02:31:44;101677.25;;;18.64;51.11
82743;BME280;72483;50.656;7.216;2024-02-21T02:34:10;101678.63;;;18.61;51.41
82743;BME280;72483;50.656;7.216;2024-02-21T02:36:36;101665.53;;;18.62;51.12
82743;BME280;72483;50.656;7.216;2024-02-21T02:39:03;101663.84;;;18.61;51.20
82743;BME280;72483;50.656;7.216;2024-02-21T02:41:30;101651.84;;;18.60;50.91
82743;BME280;72483;50.656;7.216;2024-02-21T02:43:57;101644.56;;;18.59;51.10
82743;BME280;72483;50.656;7.216;2024-02-21T02:46:23;101643.75;;;18.59;51.08
82743;BME280;72483;50.656;7.216;2024-02-21T02:48:50;101639.28;;;18.58;51.38
82743;BME280;72483;50.656;7.216;2024-02-21T02:51:16;101632.00;;;18.57;51.45
82743;BME280;72483;50.656;7.216;2024-02-21T02:53:43;101630.91;;;18.58;51.43
82743;BME280;72483;50.656;7.216;2024-02-21T02:56:14;101631.16;;;18.56;51.26
82743;BME280;72483;50.656;7.216;2024-02-21T02:58:42;101638.72;;;18.56;51.51
82743;BME280;72483;50.656;7.216;2024-02-21T03:01:08;101637.56;;;18.57;51.27
82743;BME280;72483;50.656;7.216;2024-02-21T03:03:35;101643.69;;;18.54;51.12
82743;BME280;72483;50.656;7.216;2024-02-21T03:06:01;101632.81;;;18.52;51.02
82743;BME280;72483;50.656;7.216;2024-02-21T03:08:28;101630.59;;;18.54;50.88
82743;BME280;72483;50.656;7.216;2024-02-21T03:10:54;101637.28;;;18.53;51.14
82743;BME280;72483;50.656;7.216;2024-02-21T03:13:21;101642.03;;;18.53;51.35
82743;BME280;72483;50.656;7.216;2024-02-21T03:15:49;101632.81;;;18.52;51.09
82743;BME280;72483;50.656;7.216;2024-02-21T03:18:15;101634.47;;;18.53;51.34
82743;BME280;72483;50.656;7.216;2024-02-21T03:20:42;101630.28;;;18.51;51.47
82743;BME280;72483;50.656;7.216;2024-02-21T03:23:08;101626.66;;;18.50;51.03
82743;BME280;72483;50.656;7.216;2024-02-21T03:25:35;101606.31;;;18.50;51.05
82743;BME280;72483;50.656;7.216;2024-02-21T03:28:01;101598.16;;;18.48;51.22
82743;BME280;72483;50.656;7.216;2024-02-21T03:30:28;101591.72;;;18.48;50.94
82743;BME280;72483;50.656;7.216;2024-02-21T03:32:56;101591.72;;;18.48;51.09
82743;BME280;72483;50.656;7.216;2024-02-21T03:35:23;101578.88;;;18.47;50.97
82743;BME280;72483;50.656;7.216;2024-02-21T03:37:51;101577.78;;;18.48;50.89
82743;BME280;72483;50.656;7.216;2024-02-21T03:40:18;101583.66;;;18.46;50.87
82743;BME280;72483;50.656;7.216;2024-02-21T03:42:44;101578.88;;;18.47;50.97
82743;BME280;72483;50.656;7.216;2024-02-21T03:45:11;101576.09;;;18.47;50.83
82743;BME280;72483;50.656;7.216;2024-02-21T03:47:37;101563.28;;;18.46;51.31
82743;BME280;72483;50.656;7.216;2024-02-21T03:50:06;101571.66;;;18.46;50.83
82743;BME280;72483;50.656;7.216;2024-02-21T03:52:33;101573.59;;;18.45;50.86
82743;BME280;72483;50.656;7.216;2024-02-21T03:55:00;101563.53;;;18.44;51.30
82743;BME280;72483;50.656;7.216;2024-02-21T03:57:26;101555.16;;;18.44;51.01
82743;BME280;72483;50.656;7.216;2024-02-21T03:59:53;101552.38;;;18.44;50.89
82743;BME280;72483;50.656;7.216;2024-02-21T04:02:19;101559.91;;;18.44;50.86
82743;BME280;72483;50.656;7.216;2024-02-21T04:04:45;101559.09;;;18.43;51.26
82743;BME280;72483;50.656;7.216;2024-02-21T04:07:15;101565.47;;;18.44;50.84
82743;BME280;72483;50.656;7.216;2024-02-21T04:09:42;101568.28;;;18.44;50.96
82743;BME280;72483;50.656;7.216;2024-02-21T04:12:08;101562.97;;;18.42;51.07
82743;BME280;72483;50.656;7.216;2024-02-21T04:14:35;101553.75;;;18.42;50.78
82743;BME280;72483;50.656;7.216;2024-02-21T04:17:01;101563.22;;;18.41;51.01
82743;BME280;72483;50.656;7.216;2024-02-21T04:19:28;101562.13;;;18.42;50.89
82743;BME280;72483;50.656;7.216;2024-02-21T04:21:56;101562.41;;;18.40;50.99
82743;BME280;72483;50.656;7.216;2024-02-21T04:24:24;101562.13;;;18.42;51.06
82743;BME280;72483;50.656;7.216;2024-02-21T04:26:50;101566.03;;;18.41;51.31
82743;BME280;72483;50.656;7.216;2024-02-21T04:29:16;101573.56;;;18.40;50.97
82743;BME280;72483;50.656;7.216;2024-02-21T04:31:43;101565.22;;;18.40;50.95
82743;BME280;72483;50.656;7.216;2024-02-21T04:34:11;101569.94;;;18.40;50.76
82743;BME280;72483;50.656;7.216;2024-02-21T04:36:37;101566.31;;;18.39;51.19
82743;BME280;72483;50.656;7.216;2024-02-21T04:39:03;101563.53;;;18.39;51.33
82743;BME280;72483;50.656;7.216;2024-02-21T04:41:31;101563.53;;;18.39;50.88
82743;BME280;72483;50.656;7.216;2024-02-21T04:43:58;101556.00;;;18.40;50.92
82743;BME280;72483;50.656;7.216;2024-02-21T04:46:25;101558.19;;;18.38;50.87
82743;BME280;72483;50.656;7.216;2024-02-21T04:48:51;101570.19;;;18.38;50.75
82743;BME280;72483;50.656;7.216;2024-02-21T04:51:18;101555.69;;;18.36;50.92
82743;BME280;72483;50.656;7.216;2024-02-21T04:53:44;101553.16;;;18.35;50.87
82743;BME280;72483;50.656;7.216;2024-02-21T04:56:11;101550.13;;;18.36;50.96
82743;BME280;72483;50.656;7.216;2024-02-21T04:58:39;101549.25;;;18.36;50.98
82743;BME280;72483;50.656;7.216;2024-02-21T05:01:06;101547.56;;;18.35;50.71
82743;BME280;72483;50.656;7.216;2024-02-21T05:03:33;101555.94;;;18.35;50.88
82743;BME280;72483;50.656;7.216;2024-02-21T05:05:59;101549.25;;;18.36;50.71
82743;BME280;72483;50.656;7.216;2024-02-21T05:08:26;101554.00;;;18.35;50.81
82743;BME280;72483;50.656;7.216;2024-02-21T05:10:52;101552.91;;;18.36;50.97
82743;BME280;72483;50.656;7.216;2024-02-21T05:13:19;101545.91;;;18.34;50.72
82743;BME280;72483;50.656;7.216;2024-02-21T05:15:47;101541.69;;;18.31;50.99
82743;BME280;72483;50.656;7.216;2024-02-21T05:18:13;101538.91;;;18.31;50.70
82743;BME280;72483;50.656;7.216;2024-02-21T05:20:40;101535.00;;;18.32;51.05
82743;BME280;72483;50.656;7.216;2024-02-21T05:23:06;101536.97;;;18.32;51.19
82743;BME280;72483;50.656;7.216;2024-02-21T05:25:33;101540.88;;;18.31;50.67
82743;BME280;72483;50.656;7.216;2024-02-21T05:27:59;101541.69;;;18.31;51.10
82743;BME280;72483;50.656;7.216;2024-02-21T05:30:27;101534.47;;;18.30;50.93
82743;BME280;72483;50.656;7.216;2024-02-21T05:32:55;101544.78;;;18.30;50.81
82743;BME280;72483;50.656;7.216;2024-02-21T05:35:25;101540.88;;;18.31;51.21
82743;BME280;72483;50.656;7.216;2024-02-21T05:37:51;101544.78;;;18.30;50.76
82743;BME280;72483;50.656;7.216;2024-02-21T05:40:18;101554.22;;;18.29;51.19
82743;BME280;72483;50.656;7.216;2024-02-21T05:42:45;101546.72;;;18.29;50.73
82743;BME280;72483;50.656;7.216;2024-02-21T05:45:11;101536.66;;;18.28;51.09
82743;BME280;72483;50.656;7.216;2024-02-21T05:47:38;101531.09;;;18.28;50.84
82743;BME280;72483;50.656;7.216;2024-02-21T05:50:06;101516.88;;;18.30;50.81
82743;BME280;72483;50.656;7.216;2024-02-21T05:52:33;101512.16;;;18.30;50.67
82743;BME280;72483;50.656;7.216;2024-02-21T05:55:00;101508.22;;;18.31;50.61
82743;BME280;72483;50.656;7.216;2024-02-21T05:57:26;101503.78;;;18.30;50.96
82743;BME280;72483;50.656;7.216;2024-02-21T05:59:53;101498.75;;;18.32;50.89
82743;BME280;72483;50.656;7.216;2024-02-21T06:02:19;101502.94;;;18.35;50.56
82743;BME280;72483;50.656;7.216;2024-02-21T06:04:46;101497.66;;;18.38;50.89
82743;BME280;72483;50.656;7.216;2024-02-21T06:07:14;101491.28;;;18.43;50.63
82743;BME280;72483;50.656;7.216;2024-02-21T06:09:41;101503.00;;;18.45;51.15
82743;BME280;72483;50.656;7.216;2024-02-21T06:12:07;101509.72;;;18.49;50.47
82743;BME280;72483;50.656;7.216;2024-02-21T06:14:34;101513.97;;;18.51;50.53
82743;BME280;72483;50.656;7.216;2024-02-21T06:17:00;101502.25;;;18.54;50.56
82743;BME280;72483;50.656;7.216;2024-02-21T06:19:27;101504.78;;;18.56;50.75
82743;BME280;72483;50.656;7.216;2024-02-21T06:21:54;101506.72;;;18.60;50.64
82743;BME280;72483;50.656;7.216;2024-02-21T06:24:22;101495.31;;;18.62;50.60
82743;BME280;72483;50.656;7.216;2024-02-21T06:26:48;101499.50;;;18.64;50.48
82743;BME280;72483;50.656;7.216;2024-02-21T06:29:15;101498.13;;;18.67;50.74
82743;BME280;72483;50.656;7.216;2024-02-21T06:31:41;101495.06;;;18.69;50.63
82743;BME280;72483;50.656;7.216;2024-02-21T06:34:08;101504.84;;;18.71;50.58
82743;BME280;72483;50.656;7.216;2024-02-21T06:36:34;101503.44;;;18.74;50.28
82743;BME280;72483;50.656;7.216;2024-02-21T06:39:00;101500.41;;;18.75;50.92
82743;BME280;72483;50.656;7.216;2024-02-21T06:41:31;101493.69;;;18.76;50.47
82743;BME280;72483;50.656;7.216;2024-02-21T06:43:59;101491.47;;;18.78;50.78
82743;BME280;72483;50.656;7.216;2024-02-21T06:46:27;101488.69;;;18.78;50.38
82743;BME280;72483;50.656;7.216;2024-02-21T06:48:53;101492.88;;;18.81;50.61
82743;BME280;72483;50.656;7.216;2024-02-21T06:51:21;101502.91;;;18.82;50.51
82743;BME280;72483;50.656;7.216;2024-02-21T06:53:48;101492.31;;;18.84;50.79
82743;BME280;72483;50.656;7.216;2024-02-21T06:56:14;101488.69;;;18.83;50.62
82743;BME280;72483;50.656;7.216;2024-02-21T06:58:42;101491.19;;;18.85;50.55
82743;BME280;72483;50.656;7.216;2024-02-21T07:01:09;101497.63;;;18.85;51.01
82743;BME280;72483;50.656;7.216;2024-02-21T07:03:36;101481.72;;;18.86;50.76
82743;BME280;72483;50.656;7.216;2024-02-21T07:06:03;101483.66;;;18.85;50.64
82743;BME280;72483;50.656;7.216;2024-02-21T07:08:30;101483.41;;;18.87;50.79
82743;BME280;72483;50.656;7.216;2024-02-21T07:10:56;101475.03;;;18.87;50.45
82743;BME280;72483;50.656;7.216;2024-02-21T07:13:23;101474.19;;;18.86;50.69
82743;BME280;72483;50.656;7.216;2024-02-21T07:15:51;101463.56;;;18.88;51.04
82743;BME280;72483;50.656;7.216;2024-02-21T07:18:17;101459.97;;;18.88;50.67
82743;BME280;72483;50.656;7.216;2024-02-21T07:20:44;101461.63;;;18.89;50.46
82743;BME280;72483;50.656;7.216;2024-02-21T07:23:10;101460.78;;;18.88;50.95
82743;BME280;72483;50.656;7.216;2024-02-21T07:25:37;101454.09;;;18.89;50.64
82743;BME280;72483;50.656;7.216;2024-02-21T07:28:05;101455.78;;;18.90;51.16
82743;BME280;72483;50.656;7.216;2024-02-21T07:30:31;101444.59;;;18.90;50.83
82743;BME280;72483;50.656;7.216;2024-02-21T07:32:59;101443.75;;;18.90;50.99
82743;BME280;72483;50.656;7.216;2024-02-21T07:35:26;101447.41;;;18.95;51.50
82743;BME280;72483;50.656;7.216;2024-02-21T07:37:52;101450.75;;;18.97;51.74
82743;BME280;72483;50.656;7.216;2024-02-21T07:40:19;101447.13;;;18.97;51.68
82743;BME280;72483;50.656;7.216;2024-02-21T07:42:45;101435.97;;;18.97;51.73
82743;BME280;72483;50.656;7.216;2024-02-21T07:45:12;101432.31;;;18.96;51.83
82743;BME280;72483;50.656;7.216;2024-02-21T07:47:38;101427.84;;;18.95;51.88
82743;BME280;72483;50.656;7.216;2024-02-21T07:50:07;101431.22;;;19.02;51.79
82743;BME280;72483;50.656;7.216;2024-02-21T07:52:34;101444.34;;;19.07;51.55
82743;BME280;72483;50.656;7.216;2024-02-21T07:55:01;101444.88;;;19.04;51.26
82743;BME280;72483;50.656;7.216;2024-02-21T07:57:28;101447.97;;;19.02;51.71
82743;BME280;72483;50.656;7.216;2024-02-21T07:59:55;101445.72;;;19.04;51.33
82743;BME280;72483;50.656;7.216;2024-02-21T08:02:21;101447.13;;;19.07;51.82
82743;BME280;72483;50.656;7.216;2024-02-21T08:04:48;101436.25;;;19.05;51.48
82743;BME280;72483;50.656;7.216;2024-02-21T08:07:15;101441.53;;;19.07;51.62
82743;BME280;72483;50.656;7.216;2024-02-21T08:09:42;101446.84;;;19.08;51.96
82743;BME280;72483;50.656;7.216;2024-02-21T08:12:08;101436.25;;;19.10;52.08
82743;BME280;72483;50.656;7.216;2024-02-21T08:14:35;101434.03;;;19.12;51.62
82743;BME280;72483;50.656;7.216;2024-02-21T08:17:01;101431.25;;;19.12;51.71
82743;BME280;72483;50.656;7.216;2024-02-21T08:19:29;101427.59;;;19.17;51.22
82743;BME280;72483;50.656;7.216;2024-02-21T08:21:55;101428.44;;;19.17;51.25
82743;BME280;72483;50.656;7.216;2024-02-21T08:24:23;101414.47;;;19.17;51.31
82743;BME280;72483;50.656;7.216;2024-02-21T08:26:49;101420.59;;;19.19;51.11
82743;BME280;72483;50.656;7.216;2024-02-21T08:29:16;101415.59;;;19.22;50.72
82743;BME280;72483;50.656;7.216;2024-02-21T08:31:43;101397.69;;;19.23;51.41
82743;BME280;72483;50.656;7.216;2024-02-21T08:34:09;101400.50;;;19.23;51.26
82743;BME280;72483;50.656;7.216;2024-02-21T08:36:36;101396.31;;;19.25;51.25
82743;BME280;72483;50.656;7.216;2024-02-21T08:39:03;101391.28;;;19.27;50.85
82743;BME280;72483;50.656;7.216;2024-02-21T08:41:32;101384.59;;;19.28;51.19
82743;BME280;72483;50.656;7.216;2024-02-21T08:43:59;101382.91;;;19.27;50.99
82743;BME280;72483;50.656;7.216;2024-02-21T08:46:25;101375.38;;;19.28;50.91
82743;BME280;72483;50.656;7.216;2024-02-21T08:48:52;101360.84;;;19.31;50.72
82743;BME280;72483;50.656;7.216;2024-02-21T08:51:19;101356.09;;;19.31;50.26
82743;BME280;72483;50.656;7.216;2024-02-21T08:53:46;101353.84;;;19.33;51.01
82743;BME280;72483;50.656;7.216;2024-02-21T08:56:12;101341.00;;;19.32;51.11
82743;BME280;72483;50.656;7.216;2024-02-21T08:58:40;101347.41;;;19.33;50.67
82743;BME280;72483;50.656;7.216;2024-02-21T09:01:07;101348.81;;;19.35;50.68
82743;BME280;72483;50.656;7.216;2024-02-21T09:03:35;101337.38;;;19.37;50.37
82743;BME280;72483;50.656;7.216;2024-02-21T09:06:03;101337.38;;;19.37;50.55
82743;BME280;72483;50.656;7.216;2024-02-21T09:08:30;101340.16;;;19.37;50.74
82743;BME280;72483;50.656;7.216;2024-02-21T09:10:56;101328.72;;;19.38;51.05
82743;BME280;72483;50.656;7.216;2024-02-21T09:13:23;101322.59;;;19.41;50.80
82743;BME280;72483;50.656;7.216;2024-02-21T09:15:51;101306.91;;;19.45;51.12
82743;BME280;72483;50.656;7.216;2024-02-21T09:18:17;101307.75;;;19.46;50.87
82743;BME280;72483;50.656;7.216;2024-02-21T09:20:44;101306.34;;;19.48;50.88
82743;BME280;72483;50.656;7.216;2024-02-21T09:23:12;101298.28;;;19.47;50.70
82743;BME280;72483;50.656;7.216;2024-02-21T09:25:39;101296.03;;;19.49;51.29
82743;BME280;72483;50.656;7.216;2024-02-21T09:28:06;101291.53;;;19.53;50.66
82743;BME280;72483;50.656;7.216;2024-02-21T09:30:32;101289.88;;;19.52;50.98
82743;BME280;72483;50.656;7.216;2024-02-21T09:33:00;101285.38;;;19.56;50.68
82743;BME280;72483;50.656;7.216;2024-02-21T09:35:27;101294.31;;;19.58;50.60
82743;BME280;72483;50.656;7.216;2024-02-21T09:37:54;101289.56;;;19.58;50.98
82743;BME280;72483;50.656;7.216;2024-02-21T09:40:21;101283.97;;;19.58;50.93
82743;BME280;72483;50.656;7.216;2024-02-21T09:42:48;101278.13;;;19.60;50.53
82743;BME280;72483;50.656;7.216;2024-02-21T09:45:19;101276.13;;;19.60;50.13
82743;BME280;72483;50.656;7.216;2024-02-21T09:47:55;101272.50;;;19.65;50.37
82743;BME280;72483;50.656;7.216;2024-02-21T09:50:28;101271.94;;;19.68;50.15
82743;BME280;72483;50.656;7.216;2024-02-21T09:52:56;101265.78;;;19.66;50.06
82743;BME280;72483;50.656;7.216;2024-02-21T09:55:25;101262.69;;;19.67;50.23
82743;BME280;72483;50.656;7.216;2024-02-21T09:57:53;101249.84;;;19.72;49.79
82743;BME280;72483;50.656;7.216;2024-02-21T10:00:20;101237.81;;;19.71;49.98
82743;BME280;72483;50.656;7.216;2024-02-21T10:02:47;101239.22;;;19.68;50.08
82743;BME280;72483;50.656;7.216;2024-02-21T10:05:14;101236.13;;;19.70;50.00
82743;BME280;72483;50.656;7.216;2024-02-21T10:07:42;101230.81;;;19.74;50.40
82743;BME280;72483;50.656;7.216;2024-02-21T10:10:09;101227.75;;;19.75;50.42
82743;BME280;72483;50.656;7.216;2024-02-21T10:12:36;101226.59;;;19.76;50.43
82743;BME280;72483;50.656;7.216;2024-02-21T10:15:04;101225.47;;;19.77;50.08
82743;BME280;72483;50.656;7.216;2024-02-21T10:17:32;101213.19;;;19.78;49.84
82743;BME280;72483;50.656;7.216;2024-02-21T10:20:07;101216.53;;;19.80;50.39
82743;BME280;72483;50.656;7.216;2024-02-21T10:22:34;101201.44;;;19.81;49.81
82743;BME280;72483;50.656;7.216;2024-02-21T10:25:08;101205.34;;;19.80;50.43
82743;BME280;72483;50.656;7.216;2024-02-21T10:27:34;101198.31;;;19.83;50.81
82743;BME280;72483;50.656;7.216;2024-02-21T10:30:02;101205.91;;;19.82;50.85
82743;BME280;72483;50.656;7.216;2024-02-21T10:32:29;101212.88;;;19.85;50.94
82743;BME280;72483;50.656;7.216;2024-02-21T10:35:01;101202.81;;;19.84;50.97
82743;BME280;72483;50.656;7.216;2024-02-21T10:37:28;101199.16;;;19.83;50.99
82743;BME280;72483;50.656;7.216;2024-02-21T10:39:55;101200.00;;;19.84;50.08
82743;BME280;72483;50.656;7.216;2024-02-21T10:42:27;101195.25;;;19.84;50.72
82743;BME280;72483;50.656;7.216;2024-02-21T10:45:00;101196.63;;;19.87;49.63
82743;BME280;72483;50.656;7.216;2024-02-21T10:47:31;101199.44;;;19.87;50.04
82743;BME280;72483;50.656;7.216;2024-02-21T10:50:02;101191.34;;;19.85;50.03
82743;BME280;72483;50.656;7.216;2024-02-21T10:52:38;101192.16;;;19.86;49.86
82743;BME280;72483;50.656;7.216;2024-02-21T10:55:16;101189.09;;;19.87;49.90
82743;BME280;72483;50.656;7.216;2024-02-21T10:57:48;101181.53;;;19.88;48.30
82743;BME280;72483;50.656;7.216;2024-02-21T11:00:17;101183.19;;;19.89;48.94
82743;BME280;72483;50.656;7.216;2024-02-21T11:02:44;101182.38;;;19.88;49.27
82743;BME280;72483;50.656;7.216;2024-02-21T11:05:11;101188.56;;;19.85;49.23
82743;BME280;72483;50.656;7.216;2024-02-21T11:07:39;101185.44;;;19.87;50.22
82743;BME280;72483;50.656;7.216;2024-02-21T11:10:20;101181.53;;;19.88;49.79
82743;BME280;72483;50.656;7.216;2024-02-21T11:12:48;101169.78;;;19.86;49.71
82743;BME280;72483;50.656;7.216;2024-02-21T11:15:14;101161.41;;;19.86;50.02
82743;BME280;72483;50.656;7.216;2024-02-21T11:17:41;101166.19;;;19.85;49.64
82743;BME280;72483;50.656;7.216;2024-02-21T11:20:12;101143.50;;;19.87;50.04
82743;BME280;72483;50.656;7.216;2024-02-21T11:22:41;101142.66;;;19.86;49.94
82743;BME280;72483;50.656;7.216;2024-02-21T11:25:08;101132.63;;;19.85;49.97
82743;BME280;72483;50.656;7.216;2024-02-21T11:27:37;101130.13;;;19.84;50.00
82743;BME280;72483;50.656;7.216;2024-02-21T11:30:06;101118.41;;;19.82;49.68
82743;BME280;72483;50.656;7.216;2024-02-21T11:32:32;101120.06;;;19.83;50.46
82743;BME280;72483;50.656;7.216;2024-02-21T11:34:59;101102.16;;;19.84;50.15
82743;BME280;72483;50.656;7.216;2024-02-21T11:37:29;101095.47;;;19.85;49.86
82743;BME280;72483;50.656;7.216;2024-02-21T11:39:58;101076.16;;;19.83;49.61
82743;BME280;72483;50.656;7.216;2024-02-21T11:42:25;101066.41;;;19.81;49.92
82743;BME280;72483;50.656;7.216;2024-02-21T11:44:51;101061.66;;;19.81;49.72
82743;BME280;72483;50.656;7.216;2024-02-21T11:47:19;101052.16;;;19.82;49.82
82743;BME280;72483;50.656;7.216;2024-02-21T11:49:47;101037.34;;;19.82;49.79
82743;BME280;72483;50.656;7.216;2024-02-21T11:52:15;101027.28;;;19.81;49.18
82743;BME280;72483;50.656;7.216;2024-02-21T11:54:44;101012.44;;;19.80;49.98
82743;BME280;72483;50.656;7.216;2024-02-21T11:57:11;101008.81;;;19.80;49.19
82743;BME280;72483;50.656;7.216;2024-02-21T11:59:39;100996.56;;;19.76;49.73
82743;BME280;72483;50.656;7.216;2024-02-21T12:02:06;100996.28;;;19.77;49.57
82743;BME280;72483;50.656;7.216;2024-02-21T12:04:35;100996.28;;;19.77;49.51
82743;BME280;72483;50.656;7.216;2024-02-21T12:07:02;100985.66;;;19.79;49.44
82743;BME280;72483;50.656;7.216;2024-02-21T12:09:29;100981.44;;;19.77;49.50
82743;BME280;72483;50.656;7.216;2024-02-21T12:12:00;100988.19;;;19.76;49.16
82743;BME280;72483;50.656;7.216;2024-02-21T12:14:29;100992.94;;;19.75;49.30
82743;BME280;72483;50.656;7.216;2024-02-21T12:16:56;100983.41;;;19.76;49.37
82743;BME280;72483;50.656;7.216;2024-02-21T12:19:23;100958.84;;;19.73;48.90
82743;BME280;72483;50.656;7.216;2024-02-21T12:21:51;100962.19;;;19.75;48.81
82743;BME280;72483;50.656;7.216;2024-02-21T12:24:21;100966.94;;;19.75;49.10
82743;BME280;72483;50.656;7.216;2024-02-21T12:26:48;100958.84;;;19.73;48.92
82743;BME280;72483;50.656;7.216;2024-02-21T12:29:14;100947.66;;;19.73;49.42
82743;BME280;72483;50.656;7.216;2024-02-21T12:31:41;100934.25;;;19.75;49.45
82743;BME280;72483;50.656;7.216;2024-02-21T12:34:07;100924.78;;;19.71;48.77
82743;BME280;72483;50.656;7.216;2024-02-21T12:36:36;100917.22;;;19.72;49.16
82743;BME280;72483;50.656;7.216;2024-02-21T12:39:04;100906.31;;;19.70;48.86
82743;BME280;72483;50.656;7.216;2024-02-21T12:41:30;100917.50;;;19.70;48.82
82743;BME280;72483;50.656;7.216;2024-02-21T12:43:58;100911.31;;;19.73;49.39
82743;BME280;72483;50.656;7.216;2024-02-21T12:46:24;100907.16;;;19.70;49.04
82743;BME280;72483;50.656;7.216;2024-02-21T12:48:51;100915.03;;;19.68;49.53
82743;BME280;72483;50.656;7.216;2024-02-21T12:51:17;100913.59;;;19.71;49.31